Stevensville, Michigan
Current Conditions -  °F | °C
As of 7:53 PM on Monday 26 Jan 2015 (Local Time) from KBEH Reporting Station
Overcast Overcast  
Wind Chill: 23°   Ceiling: 4800
Heat Index: 23°   Visibility: 10mi
Dew Point: 14°   Wind: 0mph
Humidity: 68%   Direction: NA
Pressure: 29.94"   Gusts: NA
Location:  42.01°N, 86.52°W
Report Text: KBEH 270053Z AUTO 00000KT 10SM OVC048 M05/M10 A2994 RMK AO2 SLP150 T10501100
Loading
Personal Weather Stations






























Interactive Weather Map New forecast layout! Learn more

10-Day Weather Forecast

Advertisements
Track Severe Weather on mobile